sensor_id;sensor_type;location;lat;lon;timestamp;temperature;humidity
21944;DHT22;11136;48.778;9.126;2023-04-03T00:01:16;7.60;96.40
21944;DHT22;11136;48.778;9.126;2023-04-03T00:03:42;7.60;96.40
21944;DHT22;11136;48.778;9.126;2023-04-03T00:06:08;7.60;96.40
21944;DHT22;11136;48.778;9.126;2023-04-03T00:08:35;7.60;96.40
21944;DHT22;11136;48.778;9.126;2023-04-03T00:11:01;7.60;96.40
21944;DHT22;11136;48.778;9.126;2023-04-03T00:13:27;7.60;96.40
21944;DHT22;11136;48.778;9.126;2023-04-03T00:15:53;7.60;96.40
21944;DHT22;11136;48.778;9.126;2023-04-03T00:18:19;7.60;96.40
21944;DHT22;11136;48.778;9.126;2023-04-03T00:20:45;7.60;96.30
21944;DHT22;11136;48.778;9.126;2023-04-03T00:23:11;7.60;96.30
21944;DHT22;11136;48.778;9.126;2023-04-03T00:25:37;7.60;96.30
21944;DHT22;11136;48.778;9.126;2023-04-03T00:28:03;7.60;96.30
21944;DHT22;11136;48.778;9.126;2023-04-03T00:30:29;7.60;96.30
21944;DHT22;11136;48.778;9.126;2023-04-03T00:32:55;7.60;96.30
21944;DHT22;11136;48.778;9.126;2023-04-03T00:35:21;7.60;96.30
21944;DHT22;11136;48.778;9.126;2023-04-03T00:37:50;7.50;96.20
21944;DHT22;11136;48.778;9.126;2023-04-03T00:40:16;7.50;96.20
21944;DHT22;11136;48.778;9.126;2023-04-03T00:42:43;7.50;96.30
21944;DHT22;11136;48.778;9.126;2023-04-03T00:47:43;7.50;96.30
21944;DHT22;11136;48.778;9.126;2023-04-03T00:50:09;7.50;96.40
21944;DHT22;11136;48.778;9.126;2023-04-03T00:52:35;7.40;96.30
21944;DHT22;11136;48.778;9.126;2023-04-03T00:55:04;7.40;96.30
21944;DHT22;11136;48.778;9.126;2023-04-03T00:57:31;7.40;96.30
21944;DHT22;11136;48.778;9.126;2023-04-03T01:00:07;7.70;96.40
21944;DHT22;11136;48.778;9.126;2023-04-03T01:02:34;7.40;96.40
21944;DHT22;11136;48.778;9.126;2023-04-03T01:05:00;7.40;96.40
21944;DHT22;11136;48.778;9.126;2023-04-03T01:07:32;7.40;96.50
21944;DHT22;11136;48.778;9.126;2023-04-03T01:10:01;7.40;96.40
21944;DHT22;11136;48.778;9.126;2023-04-03T01:12:30;7.40;96.40
21944;DHT22;11136;48.778;9.126;2023-04-03T01:15:11;7.40;96.40
21944;DHT22;11136;48.778;9.126;2023-04-03T01:17:52;7.40;96.50
21944;DHT22;11136;48.778;9.126;2023-04-03T01:25:49;7.30;96.40
21944;DHT22;11136;48.778;9.126;2023-04-03T01:30:45;7.30;96.70
21944;DHT22;11136;48.778;9.126;2023-04-03T01:33:13;7.30;96.50
21944;DHT22;11136;48.778;9.126;2023-04-03T01:35:38;7.20;96.40
21944;DHT22;11136;48.778;9.126;2023-04-03T01:38:04;7.20;96.50
21944;DHT22;11136;48.778;9.126;2023-04-03T01:40:30;7.20;96.40
21944;DHT22;11136;48.778;9.126;2023-04-03T01:42:55;7.20;96.50
21944;DHT22;11136;48.778;9.126;2023-04-03T01:45:21;7.20;96.50
21944;DHT22;11136;48.778;9.126;2023-04-03T01:47:47;7.20;96.50
21944;DHT22;11136;48.778;9.126;2023-04-03T01:50:12;7.20;96.60
21944;DHT22;11136;48.778;9.126;2023-04-03T01:52:38;7.10;96.50
21944;DHT22;11136;48.778;9.126;2023-04-03T01:55:03;7.10;96.50
21944;DHT22;11136;48.778;9.126;2023-04-03T01:57:29;7.10;96.50
21944;DHT22;11136;48.778;9.126;2023-04-03T01:59:54;7.20;96.60
21944;DHT22;11136;48.778;9.126;2023-04-03T02:02:20;7.10;96.60
21944;DHT22;11136;48.778;9.126;2023-04-03T02:04:46;7.10;96.60
21944;DHT22;11136;48.778;9.126;2023-04-03T02:07:11;7.10;96.60
21944;DHT22;11136;48.778;9.126;2023-04-03T02:09:37;7.10;96.60
21944;DHT22;11136;48.778;9.126;2023-04-03T02:12:02;7.10;96.60
21944;DHT22;11136;48.778;9.126;2023-04-03T02:14:28;7.10;96.60
21944;DHT22;11136;48.778;9.126;2023-04-03T02:16:54;7.30;96.70
21944;DHT22;11136;48.778;9.126;2023-04-03T02:19:19;7.00;96.60
21944;DHT22;11136;48.778;9.126;2023-04-03T02:21:45;7.10;96.70
21944;DHT22;11136;48.778;9.126;2023-04-03T02:24:11;7.10;96.70
21944;DHT22;11136;48.778;9.126;2023-04-03T02:26:36;7.00;96.70
21944;DHT22;11136;48.778;9.126;2023-04-03T02:29:02;7.10;96.80
21944;DHT22;11136;48.778;9.126;2023-04-03T02:31:28;7.00;96.70
21944;DHT22;11136;48.778;9.126;2023-04-03T02:33:53;7.10;97.10
21944;DHT22;11136;48.778;9.126;2023-04-03T02:36:19;7.00;96.80
21944;DHT22;11136;48.778;9.126;2023-04-03T02:38:45;7.10;96.80
21944;DHT22;11136;48.778;9.126;2023-04-03T02:41:11;7.10;96.80
21944;DHT22;11136;48.778;9.126;2023-04-03T02:43:38;7.00;96.70
21944;DHT22;11136;48.778;9.126;2023-04-03T02:46:04;7.00;96.60
21944;DHT22;11136;48.778;9.126;2023-04-03T02:48:29;7.00;96.60
21944;DHT22;11136;48.778;9.126;2023-04-03T02:50:55;7.00;96.50
21944;DHT22;11136;48.778;9.126;2023-04-03T02:53:21;7.00;96.50
21944;DHT22;11136;48.778;9.126;2023-04-03T02:55:47;7.00;96.50
21944;DHT22;11136;48.778;9.126;2023-04-03T02:58:12;7.00;96.50
21944;DHT22;11136;48.778;9.126;2023-04-03T03:00:38;7.00;96.40
21944;DHT22;11136;48.778;9.126;2023-04-03T03:03:04;7.00;96.40
21944;DHT22;11136;48.778;9.126;2023-04-03T03:05:30;7.00;96.40
21944;DHT22;11136;48.778;9.126;2023-04-03T03:07:56;7.00;96.30
21944;DHT22;11136;48.778;9.126;2023-04-03T03:10:22;7.00;96.30
21944;DHT22;11136;48.778;9.126;2023-04-03T03:12:47;7.00;96.20
21944;DHT22;11136;48.778;9.126;2023-04-03T03:15:13;6.90;96.20
21944;DHT22;11136;48.778;9.126;2023-04-03T03:17:40;7.00;96.20
21944;DHT22;11136;48.778;9.126;2023-04-03T03:20:07;7.00;96.10
21944;DHT22;11136;48.778;9.126;2023-04-03T03:22:34;7.00;96.10
21944;DHT22;11136;48.778;9.126;2023-04-03T03:25:00;6.90;96.10
21944;DHT22;11136;48.778;9.126;2023-04-03T03:27:26;7.00;96.00
21944;DHT22;11136;48.778;9.126;2023-04-03T03:29:52;6.90;96.00
21944;DHT22;11136;48.778;9.126;2023-04-03T03:32:18;7.00;95.90
21944;DHT22;11136;48.778;9.126;2023-04-03T03:34:43;7.00;95.90
21944;DHT22;11136;48.778;9.126;2023-04-03T03:37:09;6.90;95.90
21944;DHT22;11136;48.778;9.126;2023-04-03T03:39:34;7.00;95.90
21944;DHT22;11136;48.778;9.126;2023-04-03T03:42:00;6.90;95.90
21944;DHT22;11136;48.778;9.126;2023-04-03T03:44:26;6.90;95.80
21944;DHT22;11136;48.778;9.126;2023-04-03T03:46:53;6.90;95.80
21944;DHT22;11136;48.778;9.126;2023-04-03T03:49:18;6.90;95.80
21944;DHT22;11136;48.778;9.126;2023-04-03T03:51:44;7.00;95.90
21944;DHT22;11136;48.778;9.126;2023-04-03T03:54:10;6.90;95.80
21944;DHT22;11136;48.778;9.126;2023-04-03T03:56:36;6.90;95.60
21944;DHT22;11136;48.778;9.126;2023-04-03T03:59:02;6.90;95.60
21944;DHT22;11136;48.778;9.126;2023-04-03T04:01:27;6.80;95.60
21944;DHT22;11136;48.778;9.126;2023-04-03T04:03:53;7.10;95.60
21944;DHT22;11136;48.778;9.126;2023-04-03T04:06:22;6.80;95.50
21944;DHT22;11136;48.778;9.126;2023-04-03T04:08:48;6.80;95.50
21944;DHT22;11136;48.778;9.126;2023-04-03T04:11:13;7.00;96.00
21944;DHT22;11136;48.778;9.126;2023-04-03T04:13:39;6.80;95.60
21944;DHT22;11136;48.778;9.126;2023-04-03T04:16:06;6.80;95.60
21944;DHT22;11136;48.778;9.126;2023-04-03T04:18:32;6.80;95.60
21944;DHT22;11136;48.778;9.126;2023-04-03T04:20:57;6.80;95.60
21944;DHT22;11136;48.778;9.126;2023-04-03T04:23:23;6.80;95.60
21944;DHT22;11136;48.778;9.126;2023-04-03T04:25:49;6.80;95.50
21944;DHT22;11136;48.778;9.126;2023-04-03T04:28:15;6.80;95.50
21944;DHT22;11136;48.778;9.126;2023-04-03T04:30:41;6.80;95.40
21944;DHT22;11136;48.778;9.126;2023-04-03T04:33:07;6.90;95.40
21944;DHT22;11136;48.778;9.126;2023-04-03T04:35:33;6.70;95.30
21944;DHT22;11136;48.778;9.126;2023-04-03T04:37:59;6.70;95.20
21944;DHT22;11136;48.778;9.126;2023-04-03T04:40:25;6.70;95.20
21944;DHT22;11136;48.778;9.126;2023-04-03T04:42:51;6.70;95.10
21944;DHT22;11136;48.778;9.126;2023-04-03T04:45:16;6.70;95.00
21944;DHT22;11136;48.778;9.126;2023-04-03T04:47:42;6.70;95.00
21944;DHT22;11136;48.778;9.126;2023-04-03T04:50:08;6.80;95.00
21944;DHT22;11136;48.778;9.126;2023-04-03T04:52:34;6.70;95.00
21944;DHT22;11136;48.778;9.126;2023-04-03T04:55:00;6.70;95.00
21944;DHT22;11136;48.778;9.126;2023-04-03T04:57:26;6.70;94.90
21944;DHT22;11136;48.778;9.126;2023-04-03T04:59:51;6.70;94.90
21944;DHT22;11136;48.778;9.126;2023-04-03T05:02:17;6.70;94.90
21944;DHT22;11136;48.778;9.126;2023-04-03T05:04:44;6.70;94.90
21944;DHT22;11136;48.778;9.126;2023-04-03T05:07:09;6.70;94.90
21944;DHT22;11136;48.778;9.126;2023-04-03T05:09:35;6.70;94.80
21944;DHT22;11136;48.778;9.126;2023-04-03T05:12:01;6.70;94.80
21944;DHT22;11136;48.778;9.126;2023-04-03T05:14:28;6.70;94.70
21944;DHT22;11136;48.778;9.126;2023-04-03T05:16:54;6.70;94.60
21944;DHT22;11136;48.778;9.126;2023-04-03T05:19:20;6.70;94.50
21944;DHT22;11136;48.778;9.126;2023-04-03T05:21:46;6.70;94.40
21944;DHT22;11136;48.778;9.126;2023-04-03T05:24:13;6.70;94.40
21944;DHT22;11136;48.778;9.126;2023-04-03T05:26:38;6.90;94.40
21944;DHT22;11136;48.778;9.126;2023-04-03T05:29:04;6.70;94.30
21944;DHT22;11136;48.778;9.126;2023-04-03T05:31:30;6.70;94.30
21944;DHT22;11136;48.778;9.126;2023-04-03T05:33:56;6.70;94.20
21944;DHT22;11136;48.778;9.126;2023-04-03T05:36:22;6.70;94.20
21944;DHT22;11136;48.778;9.126;2023-04-03T05:38:47;6.70;94.20
21944;DHT22;11136;48.778;9.126;2023-04-03T05:41:14;6.70;94.10
21944;DHT22;11136;48.778;9.126;2023-04-03T05:43:40;6.70;94.10
21944;DHT22;11136;48.778;9.126;2023-04-03T05:46:12;6.70;94.00
21944;DHT22;11136;48.778;9.126;2023-04-03T05:48:38;6.70;94.00
21944;DHT22;11136;48.778;9.126;2023-04-03T05:51:04;6.60;94.00
21944;DHT22;11136;48.778;9.126;2023-04-03T05:53:31;6.70;94.00
21944;DHT22;11136;48.778;9.126;2023-04-03T05:55:58;6.70;94.00
21944;DHT22;11136;48.778;9.126;2023-04-03T05:58:24;6.60;94.00
21944;DHT22;11136;48.778;9.126;2023-04-03T06:00:49;6.60;94.00
21944;DHT22;11136;48.778;9.126;2023-04-03T06:03:15;6.60;94.10
21944;DHT22;11136;48.778;9.126;2023-04-03T06:05:42;6.60;94.10
21944;DHT22;11136;48.778;9.126;2023-04-03T06:08:08;6.70;94.10
21944;DHT22;11136;48.778;9.126;2023-04-03T06:10:34;6.70;94.10
21944;DHT22;11136;48.778;9.126;2023-04-03T06:13:01;6.70;94.10
21944;DHT22;11136;48.778;9.126;2023-04-03T06:15:27;6.70;94.10
21944;DHT22;11136;48.778;9.126;2023-04-03T06:17:53;6.70;94.10
21944;DHT22;11136;48.778;9.126;2023-04-03T06:20:19;6.70;94.10
21944;DHT22;11136;48.778;9.126;2023-04-03T06:22:45;6.80;94.10
21944;DHT22;11136;48.778;9.126;2023-04-03T06:25:11;6.80;94.00
21944;DHT22;11136;48.778;9.126;2023-04-03T06:27:38;6.80;94.10
21944;DHT22;11136;48.778;9.126;2023-04-03T06:30:05;6.80;94.10
21944;DHT22;11136;48.778;9.126;2023-04-03T06:32:31;6.90;94.10
21944;DHT22;11136;48.778;9.126;2023-04-03T06:34:57;6.90;94.10
21944;DHT22;11136;48.778;9.126;2023-04-03T06:37:23;6.90;94.10
21944;DHT22;11136;48.778;9.126;2023-04-03T06:39:51;6.90;94.10
21944;DHT22;11136;48.778;9.126;2023-04-03T06:42:17;6.90;94.10
21944;DHT22;11136;48.778;9.126;2023-04-03T06:44:43;7.00;94.20
21944;DHT22;11136;48.778;9.126;2023-04-03T06:47:14;7.00;94.10
21944;DHT22;11136;48.778;9.126;2023-04-03T06:49:40;7.00;94.10
21944;DHT22;11136;48.778;9.126;2023-04-03T06:52:06;7.00;94.10
21944;DHT22;11136;48.778;9.126;2023-04-03T06:54:32;7.10;94.10
21944;DHT22;11136;48.778;9.126;2023-04-03T06:56:58;7.10;94.10
21944;DHT22;11136;48.778;9.126;2023-04-03T06:59:24;7.10;94.10
21944;DHT22;11136;48.778;9.126;2023-04-03T07:01:50;7.10;94.10
21944;DHT22;11136;48.778;9.126;2023-04-03T07:04:15;7.10;94.10
21944;DHT22;11136;48.778;9.126;2023-04-03T07:06:41;7.20;94.10
21944;DHT22;11136;48.778;9.126;2023-04-03T07:09:09;7.10;94.10
21944;DHT22;11136;48.778;9.126;2023-04-03T07:11:35;7.20;94.10
21944;DHT22;11136;48.778;9.126;2023-04-03T07:14:02;7.20;94.10
21944;DHT22;11136;48.778;9.126;2023-04-03T07:16:27;7.20;94.10
21944;DHT22;11136;48.778;9.126;2023-04-03T07:18:56;7.30;94.10
21944;DHT22;11136;48.778;9.126;2023-04-03T07:21:21;7.30;94.10
21944;DHT22;11136;48.778;9.126;2023-04-03T07:23:47;7.30;94.10
21944;DHT22;11136;48.778;9.126;2023-04-03T07:26:12;7.30;94.40
21944;DHT22;11136;48.778;9.126;2023-04-03T07:28:38;7.30;94.10
21944;DHT22;11136;48.778;9.126;2023-04-03T07:31:07;7.40;94.10
21944;DHT22;11136;48.778;9.126;2023-04-03T07:33:34;7.40;94.20
21944;DHT22;11136;48.778;9.126;2023-04-03T07:36:00;7.40;94.10
21944;DHT22;11136;48.778;9.126;2023-04-03T07:38:26;7.50;94.10
21944;DHT22;11136;48.778;9.126;2023-04-03T07:40:52;7.50;94.10
21944;DHT22;11136;48.778;9.126;2023-04-03T07:43:19;7.50;94.10
21944;DHT22;11136;48.778;9.126;2023-04-03T07:45:46;7.60;94.20
21944;DHT22;11136;48.778;9.126;2023-04-03T07:48:13;7.60;94.20
21944;DHT22;11136;48.778;9.126;2023-04-03T07:50:42;7.70;94.20
21944;DHT22;11136;48.778;9.126;2023-04-03T07:53:07;7.70;94.20
21944;DHT22;11136;48.778;9.126;2023-04-03T07:55:34;7.80;94.20
21944;DHT22;11136;48.778;9.126;2023-04-03T07:58:00;7.90;94.30
21944;DHT22;11136;48.778;9.126;2023-04-03T08:00:25;8.00;94.30
21944;DHT22;11136;48.778;9.126;2023-04-03T08:02:51;8.10;94.30
21944;DHT22;11136;48.778;9.126;2023-04-03T08:05:20;8.20;94.20
21944;DHT22;11136;48.778;9.126;2023-04-03T08:07:47;8.20;94.00
21944;DHT22;11136;48.778;9.126;2023-04-03T08:10:13;8.30;93.90
21944;DHT22;11136;48.778;9.126;2023-04-03T08:12:39;8.20;93.80
21944;DHT22;11136;48.778;9.126;2023-04-03T08:15:06;8.30;93.80
21944;DHT22;11136;48.778;9.126;2023-04-03T08:17:32;8.20;93.80
21944;DHT22;11136;48.778;9.126;2023-04-03T08:19:58;8.30;93.90
21944;DHT22;11136;48.778;9.126;2023-04-03T08:22:23;8.30;93.80
21944;DHT22;11136;48.778;9.126;2023-04-03T08:24:49;8.30;93.70
21944;DHT22;11136;48.778;9.126;2023-04-03T08:27:14;8.30;93.70
21944;DHT22;11136;48.778;9.126;2023-04-03T08:29:41;8.40;93.70
21944;DHT22;11136;48.778;9.126;2023-04-03T08:32:06;8.50;93.80
21944;DHT22;11136;48.778;9.126;2023-04-03T08:34:32;8.40;93.70
21944;DHT22;11136;48.778;9.126;2023-04-03T08:37:00;8.40;93.60
21944;DHT22;11136;48.778;9.126;2023-04-03T08:39:26;8.40;93.40
21944;DHT22;11136;48.778;9.126;2023-04-03T08:41:55;8.50;93.50
21944;DHT22;11136;48.778;9.126;2023-04-03T08:44:39;8.50;93.40
21944;DHT22;11136;48.778;9.126;2023-04-03T08:47:23;8.50;93.30
21944;DHT22;11136;48.778;9.126;2023-04-03T08:49:53;8.50;93.20
21944;DHT22;11136;48.778;9.126;2023-04-03T08:52:41;8.50;93.20
21944;DHT22;11136;48.778;9.126;2023-04-03T08:55:28;8.50;93.30
21944;DHT22;11136;48.778;9.126;2023-04-03T08:58:01;8.50;93.30
21944;DHT22;11136;48.778;9.126;2023-04-03T09:01:02;8.70;93.30
21944;DHT22;11136;48.778;9.126;2023-04-03T09:03:21;8.70;93.10
21944;DHT22;11136;48.778;9.126;2023-04-03T09:06:07;8.70;93.10
21944;DHT22;11136;48.778;9.126;2023-04-03T09:08:41;8.70;92.90
21944;DHT22;11136;48.778;9.126;2023-04-03T09:11:24;8.70;92.80
21944;DHT22;11136;48.778;9.126;2023-04-03T09:13:59;8.70;92.90
21944;DHT22;11136;48.778;9.126;2023-04-03T09:19:15;8.80;92.80
21944;DHT22;11136;48.778;9.126;2023-04-03T09:21:43;8.80;92.80
21944;DHT22;11136;48.778;9.126;2023-04-03T09:24:12;8.80;92.90
21944;DHT22;11136;48.778;9.126;2023-04-03T09:26:55;8.80;92.80
21944;DHT22;11136;48.778;9.126;2023-04-03T09:29:22;8.90;92.60
21944;DHT22;11136;48.778;9.126;2023-04-03T09:32:00;8.90;92.70
21944;DHT22;11136;48.778;9.126;2023-04-03T09:34:30;8.90;92.50
21944;DHT22;11136;48.778;9.126;2023-04-03T09:36:59;8.90;92.40
21944;DHT22;11136;48.778;9.126;2023-04-03T09:39:31;8.90;92.30
21944;DHT22;11136;48.778;9.126;2023-04-03T09:42:01;8.90;92.20
21944;DHT22;11136;48.778;9.126;2023-04-03T09:44:31;8.90;92.10
21944;DHT22;11136;48.778;9.126;2023-04-03T09:46:57;8.90;92.00
21944;DHT22;11136;48.778;9.126;2023-04-03T09:49:22;8.90;91.90
21944;DHT22;11136;48.778;9.126;2023-04-03T09:51:48;8.90;91.80
21944;DHT22;11136;48.778;9.126;2023-04-03T09:56:51;8.90;91.70
21944;DHT22;11136;48.778;9.126;2023-04-03T09:59:19;8.90;91.70
21944;DHT22;11136;48.778;9.126;2023-04-03T10:02:04;8.90;91.60
21944;DHT22;11136;48.778;9.126;2023-04-03T10:04:42;8.80;91.40
21944;DHT22;11136;48.778;9.126;2023-04-03T10:07:27;8.80;91.40
21944;DHT22;11136;48.778;9.126;2023-04-03T10:10:20;8.80;91.20
21944;DHT22;11136;48.778;9.126;2023-04-03T10:12:48;8.70;91.00
21944;DHT22;11136;48.778;9.126;2023-04-03T10:15:16;8.70;91.10
21944;DHT22;11136;48.778;9.126;2023-04-03T10:17:59;8.60;91.00
21944;DHT22;11136;48.778;9.126;2023-04-03T10:20:52;8.70;91.10
21944;DHT22;11136;48.778;9.126;2023-04-03T10:23:36;8.60;91.00
21944;DHT22;11136;48.778;9.126;2023-04-03T10:31:58;8.70;91.00
21944;DHT22;11136;48.778;9.126;2023-04-03T10:34:32;8.70;91.00
21944;DHT22;11136;48.778;9.126;2023-04-03T10:37:19;8.80;91.10
21944;DHT22;11136;48.778;9.126;2023-04-03T10:42:55;8.90;90.60
21944;DHT22;11136;48.778;9.126;2023-04-03T10:45:40;8.90;90.60
21944;DHT22;11136;48.778;9.126;2023-04-03T10:48:11;8.90;90.50
21944;DHT22;11136;48.778;9.126;2023-04-03T10:51:13;8.90;90.50
21944;DHT22;11136;48.778;9.126;2023-04-03T10:53:56;8.90;90.40
21944;DHT22;11136;48.778;9.126;2023-04-03T10:56:39;8.80;90.30
21944;DHT22;11136;48.778;9.126;2023-04-03T10:59:20;8.70;90.30
21944;DHT22;11136;48.778;9.126;2023-04-03T11:01:54;8.70;90.30
21944;DHT22;11136;48.778;9.126;2023-04-03T11:04:23;8.70;90.30
21944;DHT22;11136;48.778;9.126;2023-04-03T11:06:56;8.80;90.50
21944;DHT22;11136;48.778;9.126;2023-04-03T11:09:27;8.80;90.40
21944;DHT22;11136;48.778;9.126;2023-04-03T11:12:00;8.90;90.40
21944;DHT22;11136;48.778;9.126;2023-04-03T11:14:32;9.00;90.20
21944;DHT22;11136;48.778;9.126;2023-04-03T11:22:47;9.00;89.00
21944;DHT22;11136;48.778;9.126;2023-04-03T11:25:19;9.00;89.00
21944;DHT22;11136;48.778;9.126;2023-04-03T11:27:58;9.00;88.60
21944;DHT22;11136;48.778;9.126;2023-04-03T11:30:32;9.00;88.30
21944;DHT22;11136;48.778;9.126;2023-04-03T11:35:52;9.10;87.60
21944;DHT22;11136;48.778;9.126;2023-04-03T11:38:28;9.00;87.00
21944;DHT22;11136;48.778;9.126;2023-04-03T11:40:57;9.00;86.60
21944;DHT22;11136;48.778;9.126;2023-04-03T11:43:28;9.00;86.30
21944;DHT22;11136;48.778;9.126;2023-04-03T11:45:59;9.00;86.20
21944;DHT22;11136;48.778;9.126;2023-04-03T11:51:37;9.00;86.10
21944;DHT22;11136;48.778;9.126;2023-04-03T11:53:48;8.90;85.80
21944;DHT22;11136;48.778;9.126;2023-04-03T12:01:51;8.90;86.10
21944;DHT22;11136;48.778;9.126;2023-04-03T12:04:22;9.00;86.10
21944;DHT22;11136;48.778;9.126;2023-04-03T12:09:27;9.10;86.30
21944;DHT22;11136;48.778;9.126;2023-04-03T12:11:54;9.20;85.90
21944;DHT22;11136;48.778;9.126;2023-04-03T12:14:22;9.20;85.60
21944;DHT22;11136;48.778;9.126;2023-04-03T12:16:50;9.20;85.20
21944;DHT22;11136;48.778;9.126;2023-04-03T12:29:27;9.20;84.60
21944;DHT22;11136;48.778;9.126;2023-04-03T12:48:57;9.30;83.30
21944;DHT22;11136;48.778;9.126;2023-04-03T12:51:39;9.30;83.10
21944;DHT22;11136;48.778;9.126;2023-04-03T12:54:32;9.30;82.60
21944;DHT22;11136;48.778;9.126;2023-04-03T12:57:11;9.20;82.00
21944;DHT22;11136;48.778;9.126;2023-04-03T12:59:37;9.20;82.00
21944;DHT22;11136;48.778;9.126;2023-04-03T13:02:17;9.20;82.10
21944;DHT22;11136;48.778;9.126;2023-04-03T13:04:45;9.20;82.10
21944;DHT22;11136;48.778;9.126;2023-04-03T13:07:30;9.20;82.30
21944;DHT22;11136;48.778;9.126;2023-04-03T13:10:14;9.20;81.80
21944;DHT22;11136;48.778;9.126;2023-04-03T13:12:56;9.30;81.90
21944;DHT22;11136;48.778;9.126;2023-04-03T13:15:30;9.30;82.20
21944;DHT22;11136;48.778;9.126;2023-04-03T13:18:04;9.40;82.30
21944;DHT22;11136;48.778;9.126;2023-04-03T13:20:33;9.40;82.40
21944;DHT22;11136;48.778;9.126;2023-04-03T13:23:05;9.50;82.20
21944;DHT22;11136;48.778;9.126;2023-04-03T13:25:35;9.50;82.10
21944;DHT22;11136;48.778;9.126;2023-04-03T13:28:03;9.60;82.20
21944;DHT22;11136;48.778;9.126;2023-04-03T13:30:32;9.70;81.90
21944;DHT22;11136;48.778;9.126;2023-04-03T13:33:01;9.80;81.50
21944;DHT22;11136;48.778;9.126;2023-04-03T13:35:39;9.90;81.30
21944;DHT22;11136;48.778;9.126;2023-04-03T13:40:57;9.90;80.10
21944;DHT22;11136;48.778;9.126;2023-04-03T13:43:28;9.80;79.80
21944;DHT22;11136;48.778;9.126;2023-04-03T13:46:04;9.80;79.60
21944;DHT22;11136;48.778;9.126;2023-04-03T13:48:48;9.80;79.10
21944;DHT22;11136;48.778;9.126;2023-04-03T13:53:46;9.80;79.70
21944;DHT22;11136;48.778;9.126;2023-04-03T13:56:31;9.80;79.70
21944;DHT22;11136;48.778;9.126;2023-04-03T14:01:50;10.10;79.50
21944;DHT22;11136;48.778;9.126;2023-04-03T14:04:27;10.20;78.90
21944;DHT22;11136;48.778;9.126;2023-04-03T14:06:54;10.30;78.60
21944;DHT22;11136;48.778;9.126;2023-04-03T14:09:21;10.40;79.60
21944;DHT22;11136;48.778;9.126;2023-04-03T14:11:49;10.50;78.50
21944;DHT22;11136;48.778;9.126;2023-04-03T14:14:19;10.50;77.80
21944;DHT22;11136;48.778;9.126;2023-04-03T14:16:50;10.60;76.90
21944;DHT22;11136;48.778;9.126;2023-04-03T14:19:25;10.50;76.40
21944;DHT22;11136;48.778;9.126;2023-04-03T14:21:52;10.40;76.10
21944;DHT22;11136;48.778;9.126;2023-04-03T14:24:19;10.30;76.20
21944;DHT22;11136;48.778;9.126;2023-04-03T14:26:46;10.30;76.20
21944;DHT22;11136;48.778;9.126;2023-04-03T14:29:12;10.30;76.30
21944;DHT22;11136;48.778;9.126;2023-04-03T14:31:39;10.30;76.30
21944;DHT22;11136;48.778;9.126;2023-04-03T14:34:05;10.30;76.20
21944;DHT22;11136;48.778;9.126;2023-04-03T14:36:31;10.30;75.60
21944;DHT22;11136;48.778;9.126;2023-04-03T14:39:00;10.20;75.60
21944;DHT22;11136;48.778;9.126;2023-04-03T14:41:26;10.20;75.30
21944;DHT22;11136;48.778;9.126;2023-04-03T14:43:52;10.10;75.10
21944;DHT22;11136;48.778;9.126;2023-04-03T14:48:53;10.20;75.80
21944;DHT22;11136;48.778;9.126;2023-04-03T14:51:19;10.50;76.70
21944;DHT22;11136;48.778;9.126;2023-04-03T14:53:45;10.80;77.60
21944;DHT22;11136;48.778;9.126;2023-04-03T14:56:16;11.30;77.30
21944;DHT22;11136;48.778;9.126;2023-04-03T14:58:43;11.60;76.40
21944;DHT22;11136;48.778;9.126;2023-04-03T15:01:10;12.00;75.30
21944;DHT22;11136;48.778;9.126;2023-04-03T15:03:37;12.20;73.90
21944;DHT22;11136;48.778;9.126;2023-04-03T15:06:03;12.20;72.50
21944;DHT22;11136;48.778;9.126;2023-04-03T15:08:29;12.10;71.20
21944;DHT22;11136;48.778;9.126;2023-04-03T15:10:55;12.00;70.60
21944;DHT22;11136;48.778;9.126;2023-04-03T15:13:23;11.80;70.00
21944;DHT22;11136;48.778;9.126;2023-04-03T15:15:49;11.60;69.50
21944;DHT22;11136;48.778;9.126;2023-04-03T15:18:19;11.50;69.50
21944;DHT22;11136;48.778;9.126;2023-04-03T15:20:45;11.30;69.50
21944;DHT22;11136;48.778;9.126;2023-04-03T15:23:15;11.20;69.70
21944;DHT22;11136;48.778;9.126;2023-04-03T15:25:42;11.10;69.70
21944;DHT22;11136;48.778;9.126;2023-04-03T15:28:16;11.00;69.50
21944;DHT22;11136;48.778;9.126;2023-04-03T15:30:43;10.90;69.60
21944;DHT22;11136;48.778;9.126;2023-04-03T15:33:08;10.90;70.00
21944;DHT22;11136;48.778;9.126;2023-04-03T15:35:34;10.90;69.90
21944;DHT22;11136;48.778;9.126;2023-04-03T15:37:59;10.90;70.00
21944;DHT22;11136;48.778;9.126;2023-04-03T15:40:25;10.90;69.80
21944;DHT22;11136;48.778;9.126;2023-04-03T15:42:51;10.90;69.30
21944;DHT22;11136;48.778;9.126;2023-04-03T15:45:16;10.80;68.90
21944;DHT22;11136;48.778;9.126;2023-04-03T15:47:42;10.70;68.70
21944;DHT22;11136;48.778;9.126;2023-04-03T15:50:08;10.70;68.80
21944;DHT22;11136;48.778;9.126;2023-04-03T15:52:35;10.70;68.70
21944;DHT22;11136;48.778;9.126;2023-04-03T15:55:01;10.60;68.40
21944;DHT22;11136;48.778;9.126;2023-04-03T15:57:26;10.50;68.10
21944;DHT22;11136;48.778;9.126;2023-04-03T15:59:52;10.40;68.10
21944;DHT22;11136;48.778;9.126;2023-04-03T16:02:18;10.30;68.20
21944;DHT22;11136;48.778;9.126;2023-04-03T16:04:43;10.30;68.40
21944;DHT22;11136;48.778;9.126;2023-04-03T16:07:09;10.30;68.50
21944;DHT22;11136;48.778;9.126;2023-04-03T16:09:36;10.20;68.40
21944;DHT22;11136;48.778;9.126;2023-04-03T16:12:02;10.30;68.50
21944;DHT22;11136;48.778;9.126;2023-04-03T16:14:28;10.30;68.40
21944;DHT22;11136;48.778;9.126;2023-04-03T16:16:56;10.20;68.30
21944;DHT22;11136;48.778;9.126;2023-04-03T16:19:22;10.20;68.00
21944;DHT22;11136;48.778;9.126;2023-04-03T16:21:48;10.20;67.70
21944;DHT22;11136;48.778;9.126;2023-04-03T16:24:14;10.20;67.50
21944;DHT22;11136;48.778;9.126;2023-04-03T16:26:40;10.10;67.60
21944;DHT22;11136;48.778;9.126;2023-04-03T16:29:05;10.10;67.80
21944;DHT22;11136;48.778;9.126;2023-04-03T16:31:32;10.10;67.90
21944;DHT22;11136;48.778;9.126;2023-04-03T16:33:58;10.10;68.00
21944;DHT22;11136;48.778;9.126;2023-04-03T16:36:25;10.00;68.10
21944;DHT22;11136;48.778;9.126;2023-04-03T16:38:51;10.00;68.00
21944;DHT22;11136;48.778;9.126;2023-04-03T16:41:16;9.90;67.80
21944;DHT22;11136;48.778;9.126;2023-04-03T16:43:42;9.80;67.70
21944;DHT22;11136;48.778;9.126;2023-04-03T16:46:08;9.80;67.80
21944;DHT22;11136;48.778;9.126;2023-04-03T16:48:33;9.70;67.80
21944;DHT22;11136;48.778;9.126;2023-04-03T16:51:00;9.70;68.00
21944;DHT22;11136;48.778;9.126;2023-04-03T16:53:26;9.60;68.20
21944;DHT22;11136;48.778;9.126;2023-04-03T16:55:52;9.50;68.20
21944;DHT22;11136;48.778;9.126;2023-04-03T16:58:18;9.50;68.50
21944;DHT22;11136;48.778;9.126;2023-04-03T17:00:44;9.50;68.50
21944;DHT22;11136;48.778;9.126;2023-04-03T17:03:10;9.50;68.40
21944;DHT22;11136;48.778;9.126;2023-04-03T17:05:36;9.50;68.50
21944;DHT22;11136;48.778;9.126;2023-04-03T17:08:01;9.50;68.40
21944;DHT22;11136;48.778;9.126;2023-04-03T17:10:28;9.50;68.40
21944;DHT22;11136;48.778;9.126;2023-04-03T17:12:53;9.50;68.20